EW1479 Weather Reports


Display with metric or nautical units.
time (UTC)temp
F
wind
direction
speed
MPH
gust
MPH
rain 1hr
in
rain 24hr
in
rain mn
in
humidity
%
barometer
mb
20190720004750 79 160 1.0 4.0 0.00 0.00 0.00 85 1016.4
20190720003243 80 208 0.0 2.0 0.00 0.00 0.00 84 1016.3
20190720001800 80 212 1.0 4.0 0.00 0.00 0.00 83 1016.3
20190720000253 80 271 2.0 8.0 0.00 0.00 0.00 82 1016.1
20190719234748 81 139 1.0 7.0 0.00 0.00 0.00 81 1016.2
20190719233301 81 236 2.0 5.0 0.00 0.00 0.00 80 1016.1
20190719231757 81 253 1.0 7.0 0.00 0.00 0.00 79 1015.7
20190719230251 81 156 1.0 7.0 0.00 0.00 0.00 78 1015.8
20190719224747 81 212 2.0 5.0 0.00 0.00 0.00 77 1016.3
20190719223300 81 293 2.0 6.0 0.00 0.00 0.00 76 1016.3
20190719221752 81 193 0.0 4.0 0.00 0.00 0.00 77 1016.0
20190719220301 81 224 0.0 8.0 0.00 0.00 0.00 77 1016.1
20190719214741 81 243 1.0 7.0 0.00 0.00 0.00 77 1015.8
20190719213259 81 278 1.0 9.0 0.00 0.00 0.00 77 1015.8
20190719211752 81 235 3.0 6.0 0.00 0.00 0.00 81 1015.1
20190719210248 82 281 0.0 6.0 0.00 0.00 0.00 84 1014.4
20190719204801 83 266 5.0 15.0 0.00 0.00 0.00 83 1014.7
20190719203254 84 263 6.0 15.0 0.00 0.00 0.00 83 1014.6
20190719201750 84 257 6.0 15.0 0.00 0.00 0.00 83 1014.9
20190719200243 84 273 8.0 18.0 0.00 0.00 0.00 82 1015.3
20190719194800 85 228 4.0 9.0 0.00 0.00 0.00 82 1015.3
20190719193252 85 236 3.0 13.0 0.00 0.00 0.00 82 1015.9
20190719191749 86 281 10.0 17.0 0.00 0.00 0.00 79 1016.5
20190719190242 86 281 6.0 15.0 0.00 0.00 0.00 79 1016.5
20190719184759 86 257 11.0 19.0 0.00 0.00 0.00 77 1016.6
20190719183252 87 252 7.0 12.0 0.00 0.00 0.00 77 1016.3
20190719181744 87 286 6.0 10.0 0.00 0.00 0.00 78 1016.0
20190719180241 86 264 3.0 13.0 0.00 0.00 0.00 81 1015.7
20190719174755 86 293 5.0 14.0 0.00 0.00 0.00 80 1016.0
20190719173251 86 263 3.0 14.0 0.00 0.00 0.00 81 1016.3
20190719171743 85 277 4.0 10.0 0.00 0.00 0.00 81 1016.3
20190719170241 85 277 5.0 10.0 0.00 0.00 0.00 82 1016.1
20190719164754 84 281 4.0 7.0 0.00 0.00 0.00 83 1016.0
20190719163250 84 285 4.0 12.0 0.00 0.00 0.00 82 1016.0
20190719161742 84 228 4.0 9.0 0.00 0.00 0.00 82 1016.0
20190719160307 85 221 6.0 16.0 0.00 0.00 0.00 79 1016.0
20190719154752 85 233 5.0 16.0 0.00 0.00 0.00 80 1016.2
20190719153245 85 256 5.0 12.0 0.00 0.00 0.00 79 1016.2
20190719151741 85 263 5.0 10.0 0.00 0.00 0.00 80 1016.1
20190719150254 84 276 4.0 10.0 0.00 0.00 0.00 80 1016.3
20190719144751 83 238 4.0 11.0 0.00 0.00 0.00 82 1016.3
20190719143244 83 277 5.0 13.0 0.00 0.00 0.00 82 1016.3
20190719141740 82 308 5.0 11.0 0.00 0.00 0.00 82 1016.2
20190719140254 82 243 6.0 15.0 0.00 0.00 0.00 81 1016.1
20190719134746 82 253 7.0 10.0 0.00 0.00 0.00 82 1016.0
20190719133243 81 258 2.0 7.0 0.00 0.00 0.00 83 1016.1
20190719131756 81 222 3.0 9.0 0.00 0.00 0.00 82 1015.9
20190719130253 81 264 3.0 8.0 0.00 0.00 0.00 81 1015.9
20190719124745 81 248 2.0 8.0 0.00 0.00 0.00 82 1016.0
20190719123242 80 242 2.0 7.0 0.00 0.00 0.00 82 1016.0
20190719121754 80 252 3.0 8.0 0.00 0.00 0.00 82 1015.8
20190719120248 79 205 4.0 9.0 0.00 0.00 0.00 83 1016.0
20190719114744 79 249 3.0 8.0 0.00 0.00 0.00 84 1015.8
20190719113257 78 226 4.0 8.0 0.00 0.00 0.00 84 1015.7
20190719111753 77 218 4.0 9.0 0.00 0.00 0.00 85 1015.7
20190719110247 77 243 3.0 8.0 0.00 0.00 0.00 85 1015.6
20190719104743 76 235 3.0 11.0 0.00 0.00 0.00 86 1015.8
20190719103256 76 291 4.0 9.0 0.00 0.00 0.00 87 1015.6
20190719101753 75 198 3.0 10.0 0.00 0.00 0.00 87 1015.3
20190719100258 75 208 3.0 9.0 0.00 0.00 0.00 87 1015.4
20190719094756 75 238 6.0 10.0 0.00 0.00 0.00 87 1015.4
20190719093255 75 280 4.0 9.0 0.00 0.00 0.00 87 1015.2
20190719091746 75 252 1.0 8.0 0.00 0.00 0.00 86 1015.1
20190719090243 76 214 5.0 9.0 0.00 0.00 0.00 86 1015.3
20190719084756 76 256 3.0 9.0 0.00 0.00 0.00 85 1015.3
20190719083253 76 277 3.0 12.0 0.00 0.00 0.00 85 1015.3
20190719081745 76 215 3.0 9.0 0.00 0.00 0.00 85 1015.3
20190719080243 76 208 4.0 10.0 0.00 0.00 0.00 86 1015.4
20190719074755 75 229 4.0 8.0 0.00 0.00 0.00 88 1015.2
20190719073247 74 255 0.0 5.0 0.00 0.00 0.00 89 1015.4
20190719071743 74 253 2.0 6.0 0.00 0.00 0.00 90 1015.6
20190719070258 73 228 2.0 6.0 0.00 0.00 0.00 91 1015.7
20190719064754 73 214 2.0 5.0 0.00 0.01 0.00 92 1015.9
20190719063247 73 200 2.0 4.0 0.00 0.01 0.00 92 1016.1
20190719061743 73 231 0.0 1.0 0.00 0.01 0.00 92 1016.2
20190719060257 73 242 0.0 2.0 0.00 0.01 0.00 92 1016.2
20190719054749 73 250 0.0 5.0 0.00 0.01 0.00 93 1016.3
20190719053246 73 230 0.0 3.0 0.00 0.01 0.00 93 1016.4
20190719051758 73 187 1.0 4.0 0.00 0.01 0.00 94 1016.4
20190719050256 72 222 0.0 2.0 0.00 0.01 0.00 94 1016.4
20190719044748 72 191 0.0 1.0 0.00 0.01 0.00 94 1016.4
20190719043246 72 200 0.0 3.0 0.00 0.01 0.00 95 1016.4
20190719041757 71 133 0.0 2.0 0.00 0.01 0.00 94 1016.4
20190719040313 71 115 0.0 0.0 0.00 0.01 0.00 93 1016.4
20190719034745 72 116 0.0 0.0 0.00 0.01 0.01 93 1016.5
20190719033259 72 115 0.0 0.0 0.00 0.01 0.01 93 1016.4
20190719031756 72 253 0.0 1.0 0.00 0.01 0.01 93 1016.6
20190719030248 72 141 0.0 1.0 0.00 0.01 0.01 94 1016.5
20190719024744 72 103 0.0 1.0 0.00 0.01 0.01 93 1016.9
20190719023258 71 107 0.0 1.0 0.00 0.01 0.01 93 1016.7
20190719021755 72 84 0.0 0.0 0.00 0.01 0.01 92 1016.6
20190719020247 72 82 0.0 0.0 0.00 0.01 0.01 91 1016.7
20190719014743 73 115 0.0 0.0 0.00 0.01 0.01 90 1016.7
20190719013257 74 116 0.0 0.0 0.00 0.01 0.01 89 1016.5
20190719011748 74 116 0.0 1.0 0.00 0.01 0.01 88 1016.3
20190719010246 75 114 0.0 1.0 0.00 0.01 0.01 87 1016.0